createdAt,value
2023-02-18T00:05:14.415Z,71.30
2023-02-18T00:50:47.738Z,72.64
2023-02-18T00:54:13.083Z,72.72
2023-02-18T01:05:07.624Z,73.38
2023-02-18T01:55:14.463Z,75.44
2023-02-18T01:57:48.983Z,75.37
2023-02-18T02:00:28.094Z,75.38
2023-02-18T02:03:25.752Z,75.78
2023-02-18T02:05:56.826Z,75.84
2023-02-18T02:12:04.371Z,75.65
2023-02-18T02:15:27.379Z,75.83
2023-02-18T02:18:28.718Z,75.90
2023-02-18T02:21:10.840Z,75.98
2023-02-18T02:24:18.923Z,75.94
2023-02-18T02:27:23.297Z,75.96
2023-02-18T02:33:59.982Z,75.74
2023-02-18T02:36:32.124Z,76.12
2023-02-18T02:39:21.085Z,76.17
2023-02-18T02:49:48.259Z,76.49
2023-02-18T02:52:22.019Z,76.13
2023-02-18T02:54:49.349Z,76.19
2023-02-18T02:57:25.738Z,76.33
2023-02-18T03:00:49.720Z,76.46
2023-02-18T03:04:15.466Z,76.19
2023-02-18T03:11:55.436Z,76.05
2023-02-18T03:20:55.830Z,76.43
2023-02-18T03:23:37.944Z,76.33
2023-02-18T03:26:45.407Z,76.30
2023-02-18T03:29:23.504Z,76.06
2023-02-18T03:32:35.322Z,76.15
2023-02-18T03:35:53.336Z,76.19
2023-02-18T03:48:56.601Z,76.07
2023-02-18T03:51:58.704Z,75.94
2023-02-18T03:54:29.035Z,75.98
2023-02-18T03:57:07.775Z,75.73
2023-02-18T03:59:35.605Z,76.08
2023-02-18T04:51:37.804Z,75.60
2023-02-18T04:54:30.868Z,75.91
2023-02-18T04:56:58.342Z,75.44
2023-02-18T04:59:28.312Z,75.46
2023-02-18T05:01:55.219Z,75.62
2023-02-18T05:04:22.132Z,75.61
2023-02-18T05:06:49.427Z,75.40
2023-02-18T05:09:56.125Z,75.40
2023-02-18T05:12:24.051Z,75.52
2023-02-18T05:15:10.342Z,75.20
2023-02-18T05:17:42.512Z,75.01
2023-02-18T05:20:10.159Z,75.18
2023-02-18T05:22:37.277Z,75.12
2023-02-18T05:25:21.904Z,75.03
2023-02-18T05:28:12.290Z,75.17
2023-02-18T05:31:12.105Z,74.93
2023-02-18T05:37:04.646Z,74.57
2023-02-18T05:40:07.842Z,74.31
2023-02-18T05:42:50.667Z,74.51
2023-02-18T05:45:32.148Z,74.40
2023-02-18T05:48:50.314Z,74.30
2023-02-18T05:51:32.191Z,74.36
2023-02-18T05:54:21.596Z,74.20
2023-02-18T05:57:56.197Z,74.00
2023-02-18T06:01:16.533Z,74.17
2023-02-18T06:08:36.582Z,73.71
2023-02-18T06:11:21.396Z,73.62
2023-02-18T06:13:50.260Z,73.58
2023-02-18T06:16:26.092Z,73.37
2023-02-18T06:18:53.208Z,73.40
2023-02-18T06:21:20.053Z,72.98
2023-02-18T06:23:46.815Z,73.12
2023-02-18T06:26:13.556Z,72.78
2023-02-18T06:28:40.404Z,73.04
2023-02-18T06:31:07.294Z,72.97
2023-02-18T06:33:34.505Z,72.52
2023-02-18T06:36:08.365Z,72.46
2023-02-18T06:38:40.818Z,72.63
2023-02-18T06:41:07.904Z,72.25
2023-02-18T06:43:44.348Z,72.12
2023-02-18T06:46:13.691Z,72.27
2023-02-18T06:48:40.506Z,72.32
2023-02-18T06:51:07.318Z,72.02
2023-02-18T06:53:34.248Z,71.97
2023-02-18T06:56:01.245Z,72.04
2023-02-18T06:58:28.026Z,71.93
2023-02-18T07:01:00.281Z,71.84
2023-02-18T07:03:29.606Z,71.72
2023-02-18T07:06:02.115Z,71.74
2023-02-18T07:08:31.099Z,71.57
2023-02-18T07:11:04.244Z,71.33
2023-02-18T07:13:33.469Z,71.24
2023-02-18T07:16:02.073Z,71.36
2023-02-18T07:18:28.895Z,71.06
2023-02-18T07:21:03.737Z,71.04
2023-02-18T07:23:31.132Z,70.91
2023-02-18T07:26:12.436Z,71.09
2023-02-18T07:29:17.725Z,70.84
2023-02-18T07:32:12.915Z,70.79
2023-02-18T07:41:30.946Z,70.34
2023-02-18T07:44:15.205Z,70.53
2023-02-18T07:51:00.164Z,69.88
2023-02-18T08:01:34.535Z,70.18
2023-02-18T08:04:16.021Z,69.80
2023-02-18T08:06:47.199Z,70.13
2023-02-18T08:16:36.109Z,70.36
2023-02-18T08:19:16.517Z,70.54
2023-02-18T08:21:43.298Z,70.59
2023-02-18T08:24:10.102Z,70.70
2023-02-18T08:26:37.031Z,70.26
2023-02-18T08:29:07.148Z,70.80
2023-02-18T08:32:16.300Z,70.83
2023-02-18T08:38:58.217Z,71.13
2023-02-18T08:41:27.659Z,71.06
2023-02-18T08:44:08.047Z,71.16
2023-02-18T08:46:36.063Z,71.25
2023-02-18T08:49:38.406Z,71.44
2023-02-18T08:52:09.227Z,71.54
2023-02-18T08:55:08.275Z,72.02
2023-02-18T08:58:28.203Z,72.27
2023-02-18T09:01:02.117Z,73.03
2023-02-18T09:04:01.619Z,73.51
2023-02-18T09:06:41.979Z,74.06
2023-02-18T09:09:18.949Z,74.68
2023-02-18T09:11:49.107Z,74.88
2023-02-18T09:14:50.695Z,75.21
2023-02-18T09:17:48.831Z,75.95
2023-02-18T09:20:15.690Z,76.34
2023-02-18T09:22:42.737Z,76.52
2023-02-18T09:25:21.100Z,76.58
2023-02-18T09:27:47.862Z,77.05
2023-02-18T09:30:18.479Z,77.64
2023-02-18T09:32:50.543Z,77.69
2023-02-18T09:35:20.670Z,78.26
2023-02-18T09:37:50.422Z,78.28
2023-02-18T09:40:29.318Z,78.93
2023-02-18T09:42:58.191Z,78.92
2023-02-18T09:45:30.264Z,79.20
2023-02-18T09:47:57.678Z,79.30
2023-02-18T09:50:29.889Z,79.59
2023-02-18T09:52:59.019Z,80.09
2023-02-18T09:55:32.316Z,80.22
2023-02-18T09:58:17.072Z,79.91
2023-02-18T10:12:00.005Z,80.79
2023-02-18T10:52:23.754Z,82.47
2023-02-18T11:03:46.066Z,83.05
2023-02-18T11:10:04.573Z,83.39
2023-02-18T11:12:54.275Z,83.41
2023-02-18T11:51:41.758Z,85.52
2023-02-18T11:58:14.903Z,85.53
2023-02-18T12:08:57.370Z,85.71
2023-02-18T12:18:54.707Z,86.30
2023-02-18T12:21:46.639Z,86.06
2023-02-18T12:28:25.145Z,86.29
2023-02-18T12:31:19.638Z,86.29
2023-02-18T12:33:58.780Z,86.63
2023-02-18T12:36:38.209Z,86.43
2023-02-18T12:39:21.818Z,86.49
2023-02-18T12:42:21.240Z,86.85
2023-02-18T12:53:36.658Z,86.81
2023-02-18T13:08:40.618Z,87.51
2023-02-18T13:11:48.194Z,87.41
2023-02-18T13:14:24.772Z,87.66
2023-02-18T13:16:54.012Z,87.80
2023-02-18T13:19:25.058Z,88.28
2023-02-18T16:30:54.276Z,92.46
2023-02-18T17:07:13.636Z,92.43
2023-02-18T17:36:34.092Z,92.10
2023-02-18T18:09:27.534Z,91.99
2023-02-18T18:15:29.338Z,91.87
2023-02-18T18:26:34.201Z,91.84
2023-02-18T18:29:13.096Z,91.99
2023-02-18T18:31:40.076Z,91.85
2023-02-18T18:35:11.844Z,91.77
2023-02-18T18:45:58.729Z,91.40
2023-02-18T18:49:24.444Z,91.78
2023-02-18T18:51:51.601Z,91.40
2023-02-18T18:54:19.899Z,91.50
2023-02-18T18:56:53.550Z,91.15
2023-02-18T18:59:21.932Z,91.51
2023-02-18T19:02:18.747Z,91.28
2023-02-18T19:04:47.995Z,91.00
2023-02-18T19:07:22.105Z,91.25
2023-02-18T19:10:03.869Z,90.99
2023-02-18T19:12:31.496Z,90.91
2023-02-18T19:14:59.159Z,91.04
2023-02-18T19:17:25.980Z,90.97
2023-02-18T19:19:52.814Z,90.86
2023-02-18T19:22:30.056Z,90.92
2023-02-18T19:24:57.109Z,90.92
2023-02-18T19:27:23.982Z,90.70
2023-02-18T19:29:54.318Z,90.76
2023-02-18T19:44:16.312Z,90.72
2023-02-18T19:46:50.698Z,90.94
2023-02-18T19:53:28.630Z,90.52
2023-02-18T20:04:38.822Z,90.43
2023-02-18T20:07:52.698Z,90.09
2023-02-18T20:10:20.409Z,90.39
2023-02-18T20:12:54.848Z,90.30
2023-02-18T20:15:22.269Z,90.04
2023-02-18T20:17:49.837Z,90.19
2023-02-18T20:20:20.404Z,90.21
